Weesatche, Texas
Current Conditions -  °F | °C
As of 12:51 AM on Monday 24 Nov 2014 (Local Time) from KVCT Reporting Station
Clear Clear  
Wind Chill: 62°   Ceiling: Unl
Heat Index: 62°   Visibility: 10mi
Dew Point: 48°   Wind: 10mph
Humidity: 60%   Direction: 350°N
Pressure: 29.81"   Gusts: NA
Location:  28.85°N, 97.45°W
Report Text: KVCT 240651Z AUTO 35009KT 10SM CLR 17/09 A2981 RMK AO2 SLP094 T01670089
Loading
Personal Weather Stations






























Interactive Weather Map New forecast layout! Learn more

10-Day Weather Forecast

Advertisements
Track Severe Weather on mobile